sensor_id;sensor_type;location;lat;lon;timestamp;temperature;humidity
60965;DHT22;46834;51.100;6.886;2023-02-13T00:00:29;9.70;49.80
60965;DHT22;46834;51.100;6.886;2023-02-13T00:02:55;9.70;49.80
60965;DHT22;46834;51.100;6.886;2023-02-13T00:05:21;9.60;49.80
60965;DHT22;46834;51.100;6.886;2023-02-13T00:07:47;9.60;50.30
60965;DHT22;46834;51.100;6.886;2023-02-13T00:10:13;9.60;49.80
60965;DHT22;46834;51.100;6.886;2023-02-13T00:12:39;9.60;49.80
60965;DHT22;46834;51.100;6.886;2023-02-13T00:15:05;9.60;49.80
60965;DHT22;46834;51.100;6.886;2023-02-13T00:17:31;9.60;49.80
60965;DHT22;46834;51.100;6.886;2023-02-13T00:19:57;9.60;49.80
60965;DHT22;46834;51.100;6.886;2023-02-13T00:22:23;9.50;49.70
60965;DHT22;46834;51.100;6.886;2023-02-13T00:24:49;9.60;49.80
60965;DHT22;46834;51.100;6.886;2023-02-13T00:27:14;9.50;49.80
60965;DHT22;46834;51.100;6.886;2023-02-13T00:29:40;9.60;49.80
60965;DHT22;46834;51.100;6.886;2023-02-13T00:32:06;9.60;49.90
60965;DHT22;46834;51.100;6.886;2023-02-13T00:34:32;9.60;49.90
60965;DHT22;46834;51.100;6.886;2023-02-13T00:36:57;9.60;49.90
60965;DHT22;46834;51.100;6.886;2023-02-13T00:39:23;9.50;49.90
60965;DHT22;46834;51.100;6.886;2023-02-13T00:41:49;9.60;49.90
60965;DHT22;46834;51.100;6.886;2023-02-13T00:44:14;9.50;49.90
60965;DHT22;46834;51.100;6.886;2023-02-13T00:46:40;9.50;49.80
60965;DHT22;46834;51.100;6.886;2023-02-13T00:49:06;9.50;49.80
60965;DHT22;46834;51.100;6.886;2023-02-13T00:51:32;9.50;49.80
60965;DHT22;46834;51.100;6.886;2023-02-13T00:53:57;9.50;49.80
60965;DHT22;46834;51.100;6.886;2023-02-13T00:56:23;9.50;49.80
60965;DHT22;46834;51.100;6.886;2023-02-13T00:58:48;9.50;49.80
60965;DHT22;46834;51.100;6.886;2023-02-13T01:01:14;9.50;49.80
60965;DHT22;46834;51.100;6.886;2023-02-13T01:03:40;9.50;49.80
60965;DHT22;46834;51.100;6.886;2023-02-13T01:06:06;9.40;49.70
60965;DHT22;46834;51.100;6.886;2023-02-13T01:08:32;9.50;49.80
60965;DHT22;46834;51.100;6.886;2023-02-13T01:10:59;9.40;49.80
60965;DHT22;46834;51.100;6.886;2023-02-13T01:13:25;9.40;49.80
60965;DHT22;46834;51.100;6.886;2023-02-13T01:15:51;9.40;49.80
60965;DHT22;46834;51.100;6.886;2023-02-13T01:18:18;9.40;49.80
60965;DHT22;46834;51.100;6.886;2023-02-13T01:20:45;9.40;49.80
60965;DHT22;46834;51.100;6.886;2023-02-13T01:23:20;9.40;49.80
60965;DHT22;46834;51.100;6.886;2023-02-13T01:25:45;9.30;49.70
60965;DHT22;46834;51.100;6.886;2023-02-13T01:28:11;9.40;49.90
60965;DHT22;46834;51.100;6.886;2023-02-13T01:30:37;9.40;49.90
60965;DHT22;46834;51.100;6.886;2023-02-13T01:33:02;9.40;49.90
60965;DHT22;46834;51.100;6.886;2023-02-13T01:35:28;9.40;49.90
60965;DHT22;46834;51.100;6.886;2023-02-13T01:37:54;9.30;49.80
60965;DHT22;46834;51.100;6.886;2023-02-13T01:40:19;9.30;49.80
60965;DHT22;46834;51.100;6.886;2023-02-13T01:42:45;9.40;49.80
60965;DHT22;46834;51.100;6.886;2023-02-13T01:45:24;9.30;49.80
60965;DHT22;46834;51.100;6.886;2023-02-13T01:47:59;9.30;49.80
60965;DHT22;46834;51.100;6.886;2023-02-13T01:50:32;9.40;50.00
60965;DHT22;46834;51.100;6.886;2023-02-13T01:53:11;9.30;49.80
60965;DHT22;46834;51.100;6.886;2023-02-13T01:55:54;9.30;49.90
60965;DHT22;46834;51.100;6.886;2023-02-13T01:58:25;9.30;49.90
60965;DHT22;46834;51.100;6.886;2023-02-13T02:00:53;9.30;49.90
60965;DHT22;46834;51.100;6.886;2023-02-13T02:03:37;9.30;49.90
60965;DHT22;46834;51.100;6.886;2023-02-13T02:06:10;9.30;50.00
60965;DHT22;46834;51.100;6.886;2023-02-13T02:08:39;9.30;49.90
60965;DHT22;46834;51.100;6.886;2023-02-13T02:11:13;9.30;49.90
60965;DHT22;46834;51.100;6.886;2023-02-13T02:13:44;9.30;49.90
60965;DHT22;46834;51.100;6.886;2023-02-13T02:16:10;9.20;49.80
60965;DHT22;46834;51.100;6.886;2023-02-13T02:18:36;9.30;49.90
60965;DHT22;46834;51.100;6.886;2023-02-13T02:24:16;9.30;50.00
60965;DHT22;46834;51.100;6.886;2023-02-13T02:27:14;9.20;49.90
60965;DHT22;46834;51.100;6.886;2023-02-13T02:33:07;9.30;50.00
60965;DHT22;46834;51.100;6.886;2023-02-13T02:39:12;9.20;50.00
60965;DHT22;46834;51.100;6.886;2023-02-13T02:47:59;9.20;49.90
60965;DHT22;46834;51.100;6.886;2023-02-13T02:51:42;9.20;49.80
60965;DHT22;46834;51.100;6.886;2023-02-13T02:54:15;9.20;49.90
60965;DHT22;46834;51.100;6.886;2023-02-13T02:57:13;9.20;49.90
60965;DHT22;46834;51.100;6.886;2023-02-13T02:59:45;9.20;49.90
60965;DHT22;46834;51.100;6.886;2023-02-13T03:02:33;9.10;49.80
60965;DHT22;46834;51.100;6.886;2023-02-13T03:05:25;9.10;49.80
60965;DHT22;46834;51.100;6.886;2023-02-13T03:08:13;9.10;49.80
60965;DHT22;46834;51.100;6.886;2023-02-13T03:10:40;9.10;49.90
60965;DHT22;46834;51.100;6.886;2023-02-13T03:16:13;9.10;50.00
60965;DHT22;46834;51.100;6.886;2023-02-13T03:19:02;9.10;49.90
60965;DHT22;46834;51.100;6.886;2023-02-13T03:21:51;9.00;49.90
60965;DHT22;46834;51.100;6.886;2023-02-13T03:24:48;9.00;49.90
60965;DHT22;46834;51.100;6.886;2023-02-13T03:33:56;9.00;50.00
60965;DHT22;46834;51.100;6.886;2023-02-13T03:36:46;9.00;50.00
60965;DHT22;46834;51.100;6.886;2023-02-13T03:42:40;9.00;50.50
60965;DHT22;46834;51.100;6.886;2023-02-13T03:45:33;9.00;49.90
60965;DHT22;46834;51.100;6.886;2023-02-13T03:48:31;9.00;50.00
60965;DHT22;46834;51.100;6.886;2023-02-13T03:51:26;8.90;50.00
60965;DHT22;46834;51.100;6.886;2023-02-13T03:53:57;9.00;50.00
60965;DHT22;46834;51.100;6.886;2023-02-13T03:56:28;8.90;49.90
60965;DHT22;46834;51.100;6.886;2023-02-13T03:59:22;8.90;49.90
60965;DHT22;46834;51.100;6.886;2023-02-13T04:02:14;8.90;49.90
60965;DHT22;46834;51.100;6.886;2023-02-13T04:05:02;8.90;50.00
60965;DHT22;46834;51.100;6.886;2023-02-13T04:07:33;8.90;50.00
60965;DHT22;46834;51.100;6.886;2023-02-13T04:10:09;8.90;50.00
60965;DHT22;46834;51.100;6.886;2023-02-13T04:12:59;8.90;50.10
60965;DHT22;46834;51.100;6.886;2023-02-13T04:15:59;8.90;50.10
60965;DHT22;46834;51.100;6.886;2023-02-13T04:18:31;8.90;50.10
60965;DHT22;46834;51.100;6.886;2023-02-13T04:21:06;8.90;50.00
60965;DHT22;46834;51.100;6.886;2023-02-13T04:23:32;8.80;50.00
60965;DHT22;46834;51.100;6.886;2023-02-13T04:26:00;8.80;50.00
60965;DHT22;46834;51.100;6.886;2023-02-13T04:28:30;8.80;50.00
60965;DHT22;46834;51.100;6.886;2023-02-13T04:30:56;8.80;50.00
60965;DHT22;46834;51.100;6.886;2023-02-13T04:33:22;8.80;50.00
60965;DHT22;46834;51.100;6.886;2023-02-13T04:35:48;8.80;50.10
60965;DHT22;46834;51.100;6.886;2023-02-13T04:38:14;8.80;50.00
60965;DHT22;46834;51.100;6.886;2023-02-13T04:40:39;8.80;50.10
60965;DHT22;46834;51.100;6.886;2023-02-13T04:43:05;8.80;50.10
60965;DHT22;46834;51.100;6.886;2023-02-13T04:45:31;8.80;50.10
60965;DHT22;46834;51.100;6.886;2023-02-13T04:47:57;8.80;50.10
60965;DHT22;46834;51.100;6.886;2023-02-13T04:50:23;8.80;50.10
60965;DHT22;46834;51.100;6.886;2023-02-13T04:52:55;8.80;50.10
60965;DHT22;46834;51.100;6.886;2023-02-13T04:55:23;8.80;50.20
60965;DHT22;46834;51.100;6.886;2023-02-13T04:57:53;8.80;50.10
60965;DHT22;46834;51.100;6.886;2023-02-13T05:00:21;8.80;50.20
60965;DHT22;46834;51.100;6.886;2023-02-13T05:02:49;8.80;50.20
60965;DHT22;46834;51.100;6.886;2023-02-13T05:05:15;8.80;50.10
60965;DHT22;46834;51.100;6.886;2023-02-13T05:07:41;8.80;50.20
60965;DHT22;46834;51.100;6.886;2023-02-13T05:10:09;8.80;50.20
60965;DHT22;46834;51.100;6.886;2023-02-13T05:12:35;8.80;50.10
60965;DHT22;46834;51.100;6.886;2023-02-13T05:15:01;8.80;50.10
60965;DHT22;46834;51.100;6.886;2023-02-13T05:17:27;8.80;50.10
60965;DHT22;46834;51.100;6.886;2023-02-13T05:19:52;8.80;50.10
60965;DHT22;46834;51.100;6.886;2023-02-13T05:22:18;8.80;50.10
60965;DHT22;46834;51.100;6.886;2023-02-13T05:25:02;8.80;50.00
60965;DHT22;46834;51.100;6.886;2023-02-13T05:27:28;8.80;50.00
60965;DHT22;46834;51.100;6.886;2023-02-13T05:29:54;8.80;50.00
60965;DHT22;46834;51.100;6.886;2023-02-13T05:32:20;8.70;49.90
60965;DHT22;46834;51.100;6.886;2023-02-13T05:34:45;8.70;49.90
60965;DHT22;46834;51.100;6.886;2023-02-13T05:37:11;8.70;50.00
60965;DHT22;46834;51.100;6.886;2023-02-13T05:39:36;8.60;49.90
60965;DHT22;46834;51.100;6.886;2023-02-13T05:42:03;8.70;50.00
60965;DHT22;46834;51.100;6.886;2023-02-13T05:44:30;8.60;49.90
60965;DHT22;46834;51.100;6.886;2023-02-13T05:46:56;8.60;49.90
60965;DHT22;46834;51.100;6.886;2023-02-13T05:49:22;8.60;50.00
60965;DHT22;46834;51.100;6.886;2023-02-13T05:51:48;8.50;49.90
60965;DHT22;46834;51.100;6.886;2023-02-13T05:54:16;8.50;49.90
60965;DHT22;46834;51.100;6.886;2023-02-13T05:56:42;8.50;49.90
60965;DHT22;46834;51.100;6.886;2023-02-13T05:59:08;8.50;49.90
60965;DHT22;46834;51.100;6.886;2023-02-13T06:01:34;8.50;49.90
60965;DHT22;46834;51.100;6.886;2023-02-13T06:04:00;8.50;49.90
60965;DHT22;46834;51.100;6.886;2023-02-13T06:06:26;8.40;49.80
60965;DHT22;46834;51.100;6.886;2023-02-13T06:08:52;8.40;49.90
60965;DHT22;46834;51.100;6.886;2023-02-13T06:11:19;8.40;49.90
60965;DHT22;46834;51.100;6.886;2023-02-13T06:13:45;8.40;49.90
60965;DHT22;46834;51.100;6.886;2023-02-13T06:16:11;8.30;49.80
60965;DHT22;46834;51.100;6.886;2023-02-13T06:18:38;8.30;49.80
60965;DHT22;46834;51.100;6.886;2023-02-13T06:21:05;8.20;49.70
60965;DHT22;46834;51.100;6.886;2023-02-13T06:23:32;8.20;49.70
60965;DHT22;46834;51.100;6.886;2023-02-13T06:26:02;8.20;49.70
60965;DHT22;46834;51.100;6.886;2023-02-13T06:28:29;8.20;49.80
60965;DHT22;46834;51.100;6.886;2023-02-13T06:30:55;8.10;49.70
60965;DHT22;46834;51.100;6.886;2023-02-13T06:33:20;8.10;49.70
60965;DHT22;46834;51.100;6.886;2023-02-13T06:35:46;8.10;49.80
60965;DHT22;46834;51.100;6.886;2023-02-13T06:38:12;8.00;49.80
60965;DHT22;46834;51.100;6.886;2023-02-13T06:40:37;8.00;49.80
60965;DHT22;46834;51.100;6.886;2023-02-13T06:43:03;8.00;49.80
60965;DHT22;46834;51.100;6.886;2023-02-13T06:45:28;7.90;49.70
60965;DHT22;46834;51.100;6.886;2023-02-13T06:47:54;7.90;49.80
60965;DHT22;46834;51.100;6.886;2023-02-13T06:50:20;7.90;49.80
60965;DHT22;46834;51.100;6.886;2023-02-13T06:52:50;7.90;49.80
60965;DHT22;46834;51.100;6.886;2023-02-13T06:55:16;7.80;49.80
60965;DHT22;46834;51.100;6.886;2023-02-13T06:57:43;7.80;49.80
60965;DHT22;46834;51.100;6.886;2023-02-13T07:00:11;7.80;49.80
60965;DHT22;46834;51.100;6.886;2023-02-13T07:02:39;7.80;49.90
60965;DHT22;46834;51.100;6.886;2023-02-13T07:05:06;7.80;49.90
60965;DHT22;46834;51.100;6.886;2023-02-13T07:07:34;7.70;49.80
60965;DHT22;46834;51.100;6.886;2023-02-13T07:10:00;7.70;49.90
60965;DHT22;46834;51.100;6.886;2023-02-13T07:12:27;7.70;49.90
60965;DHT22;46834;51.100;6.886;2023-02-13T07:14:52;7.70;49.90
60965;DHT22;46834;51.100;6.886;2023-02-13T07:17:18;7.70;49.90
60965;DHT22;46834;51.100;6.886;2023-02-13T07:19:44;7.70;50.00
60965;DHT22;46834;51.100;6.886;2023-02-13T07:22:09;7.70;50.00
60965;DHT22;46834;51.100;6.886;2023-02-13T07:24:35;7.60;49.90
60965;DHT22;46834;51.100;6.886;2023-02-13T07:27:03;7.60;50.00
60965;DHT22;46834;51.100;6.886;2023-02-13T07:29:29;7.60;50.00
60965;DHT22;46834;51.100;6.886;2023-02-13T07:31:55;7.60;50.00
60965;DHT22;46834;51.100;6.886;2023-02-13T07:34:20;7.70;50.10
60965;DHT22;46834;51.100;6.886;2023-02-13T07:36:46;7.70;50.10
60965;DHT22;46834;51.100;6.886;2023-02-13T07:39:12;7.70;50.10
60965;DHT22;46834;51.100;6.886;2023-02-13T07:41:37;7.70;50.20
60965;DHT22;46834;51.100;6.886;2023-02-13T07:44:03;7.70;50.20
60965;DHT22;46834;51.100;6.886;2023-02-13T07:46:29;7.70;50.20
60965;DHT22;46834;51.100;6.886;2023-02-13T07:48:54;7.70;50.20
60965;DHT22;46834;51.100;6.886;2023-02-13T07:51:20;7.70;50.20
60965;DHT22;46834;51.100;6.886;2023-02-13T07:53:50;7.70;50.20
60965;DHT22;46834;51.100;6.886;2023-02-13T07:56:17;7.80;50.30
60965;DHT22;46834;51.100;6.886;2023-02-13T07:58:43;7.80;50.30
60965;DHT22;46834;51.100;6.886;2023-02-13T08:01:11;7.80;50.30
60965;DHT22;46834;51.100;6.886;2023-02-13T08:03:39;7.90;50.40
60965;DHT22;46834;51.100;6.886;2023-02-13T08:06:05;7.90;50.30
60965;DHT22;46834;51.100;6.886;2023-02-13T08:08:32;7.90;50.30
60965;DHT22;46834;51.100;6.886;2023-02-13T08:11:02;7.90;50.30
60965;DHT22;46834;51.100;6.886;2023-02-13T08:13:55;7.90;50.30
60965;DHT22;46834;51.100;6.886;2023-02-13T08:16:20;8.00;50.30
60965;DHT22;46834;51.100;6.886;2023-02-13T08:18:46;8.00;50.30
60965;DHT22;46834;51.100;6.886;2023-02-13T08:21:12;8.00;50.30
60965;DHT22;46834;51.100;6.886;2023-02-13T08:23:39;8.00;50.40
60965;DHT22;46834;51.100;6.886;2023-02-13T08:26:05;8.10;51.00
60965;DHT22;46834;51.100;6.886;2023-02-13T08:28:30;8.10;50.40
60965;DHT22;46834;51.100;6.886;2023-02-13T08:30:56;8.10;50.30
60965;DHT22;46834;51.100;6.886;2023-02-13T08:33:22;8.10;50.30
60965;DHT22;46834;51.100;6.886;2023-02-13T08:35:47;8.20;50.40
60965;DHT22;46834;51.100;6.886;2023-02-13T08:38:13;8.20;50.40
60965;DHT22;46834;51.100;6.886;2023-02-13T08:40:39;8.20;50.30
60965;DHT22;46834;51.100;6.886;2023-02-13T08:43:05;8.30;50.40
60965;DHT22;46834;51.100;6.886;2023-02-13T08:45:31;8.30;50.40
60965;DHT22;46834;51.100;6.886;2023-02-13T08:47:58;8.30;50.50
60965;DHT22;46834;51.100;6.886;2023-02-13T08:50:25;8.30;50.30
60965;DHT22;46834;51.100;6.886;2023-02-13T08:52:52;8.40;50.40
60965;DHT22;46834;51.100;6.886;2023-02-13T08:55:18;8.40;50.40
60965;DHT22;46834;51.100;6.886;2023-02-13T08:57:44;8.40;50.30
60965;DHT22;46834;51.100;6.886;2023-02-13T09:00:10;8.50;50.40
60965;DHT22;46834;51.100;6.886;2023-02-13T09:02:36;8.50;50.40
60965;DHT22;46834;51.100;6.886;2023-02-13T09:05:01;8.60;50.50
60965;DHT22;46834;51.100;6.886;2023-02-13T09:07:27;8.60;50.40
60965;DHT22;46834;51.100;6.886;2023-02-13T09:09:53;8.70;50.30
60965;DHT22;46834;51.100;6.886;2023-02-13T09:12:18;8.70;50.30
60965;DHT22;46834;51.100;6.886;2023-02-13T09:14:44;8.70;50.30
60965;DHT22;46834;51.100;6.886;2023-02-13T09:17:12;8.80;50.40
60965;DHT22;46834;51.100;6.886;2023-02-13T09:19:38;8.80;50.40
60965;DHT22;46834;51.100;6.886;2023-02-13T09:22:04;8.90;50.60
60965;DHT22;46834;51.100;6.886;2023-02-13T09:24:29;9.00;50.90
60965;DHT22;46834;51.100;6.886;2023-02-13T09:26:55;9.10;51.00
60965;DHT22;46834;51.100;6.886;2023-02-13T09:29:21;9.20;50.80
60965;DHT22;46834;51.100;6.886;2023-02-13T09:31:46;9.30;50.60
60965;DHT22;46834;51.100;6.886;2023-02-13T09:34:12;9.40;50.30
60965;DHT22;46834;51.100;6.886;2023-02-13T09:36:38;9.50;50.30
60965;DHT22;46834;51.100;6.886;2023-02-13T09:39:03;9.60;50.20
60965;DHT22;46834;51.100;6.886;2023-02-13T09:41:38;9.60;50.10
60965;DHT22;46834;51.100;6.886;2023-02-13T09:44:15;9.70;49.90
60965;DHT22;46834;51.100;6.886;2023-02-13T09:47:31;9.70;49.80
60965;DHT22;46834;51.100;6.886;2023-02-13T09:50:09;9.70;49.70
60965;DHT22;46834;51.100;6.886;2023-02-13T09:52:39;9.80;49.80
60965;DHT22;46834;51.100;6.886;2023-02-13T09:55:25;9.80;49.90
60965;DHT22;46834;51.100;6.886;2023-02-13T09:58:47;9.80;50.30
60965;DHT22;46834;51.100;6.886;2023-02-13T10:01:33;9.90;49.80
60965;DHT22;46834;51.100;6.886;2023-02-13T10:07:38;10.00;49.70
60965;DHT22;46834;51.100;6.886;2023-02-13T10:10:46;10.00;49.80
60965;DHT22;46834;51.100;6.886;2023-02-13T10:13:42;10.10;49.60
60965;DHT22;46834;51.100;6.886;2023-02-13T10:16:37;10.10;49.50
60965;DHT22;46834;51.100;6.886;2023-02-13T10:19:14;10.20;49.60
60965;DHT22;46834;51.100;6.886;2023-02-13T10:21:49;10.20;49.60
60965;DHT22;46834;51.100;6.886;2023-02-13T10:30:29;10.60;50.60
60965;DHT22;46834;51.100;6.886;2023-02-13T10:36:16;11.20;51.60
60965;DHT22;46834;51.100;6.886;2023-02-13T10:39:43;11.50;50.40
60965;DHT22;46834;51.100;6.886;2023-02-13T10:47:28;11.80;48.80
60965;DHT22;46834;51.100;6.886;2023-02-13T10:56:24;11.80;48.30
60965;DHT22;46834;51.100;6.886;2023-02-13T10:59:04;11.80;48.60
60965;DHT22;46834;51.100;6.886;2023-02-13T11:01:46;11.70;48.30
60965;DHT22;46834;51.100;6.886;2023-02-13T11:04:19;11.70;48.50
60965;DHT22;46834;51.100;6.886;2023-02-13T11:06:59;11.70;48.60
60965;DHT22;46834;51.100;6.886;2023-02-13T11:09:27;11.80;48.40
60965;DHT22;46834;51.100;6.886;2023-02-13T11:11:55;11.70;48.30
60965;DHT22;46834;51.100;6.886;2023-02-13T11:14:27;11.70;48.40
60965;DHT22;46834;51.100;6.886;2023-02-13T11:16:58;11.80;48.10
60965;DHT22;46834;51.100;6.886;2023-02-13T11:19:45;11.80;48.20
60965;DHT22;46834;51.100;6.886;2023-02-13T11:22:30;11.80;48.30
60965;DHT22;46834;51.100;6.886;2023-02-13T11:25:05;11.90;48.10
60965;DHT22;46834;51.100;6.886;2023-02-13T11:27:41;12.00;48.80
60965;DHT22;46834;51.100;6.886;2023-02-13T11:33:04;12.40;48.90
60965;DHT22;46834;51.100;6.886;2023-02-13T11:35:45;12.70;49.30
60965;DHT22;46834;51.100;6.886;2023-02-13T11:40:43;13.10;49.20
60965;DHT22;46834;51.100;6.886;2023-02-13T11:43:18;13.40;49.40
60965;DHT22;46834;51.100;6.886;2023-02-13T11:46:01;13.60;49.00
60965;DHT22;46834;51.100;6.886;2023-02-13T11:48:32;13.90;48.60
60965;DHT22;46834;51.100;6.886;2023-02-13T11:50:58;14.10;48.90
60965;DHT22;46834;51.100;6.886;2023-02-13T11:53:30;14.30;48.60
60965;DHT22;46834;51.100;6.886;2023-02-13T11:56:12;14.40;47.70
60965;DHT22;46834;51.100;6.886;2023-02-13T11:58:40;14.50;47.20
60965;DHT22;46834;51.100;6.886;2023-02-13T12:01:22;14.60;47.90
60965;DHT22;46834;51.100;6.886;2023-02-13T12:04:01;14.70;47.40
60965;DHT22;46834;51.100;6.886;2023-02-13T12:06:28;14.80;46.90
60965;DHT22;46834;51.100;6.886;2023-02-13T12:08:54;14.90;47.70
60965;DHT22;46834;51.100;6.886;2023-02-13T12:11:27;15.00;47.40
60965;DHT22;46834;51.100;6.886;2023-02-13T12:14:02;15.10;46.80
60965;DHT22;46834;51.100;6.886;2023-02-13T12:16:37;15.20;47.10
60965;DHT22;46834;51.100;6.886;2023-02-13T12:19:32;15.30;46.60
60965;DHT22;46834;51.100;6.886;2023-02-13T12:28:33;15.60;46.00
60965;DHT22;46834;51.100;6.886;2023-02-13T12:31:38;15.60;46.10
60965;DHT22;46834;51.100;6.886;2023-02-13T12:37:13;15.70;45.60
60965;DHT22;46834;51.100;6.886;2023-02-13T12:46:35;15.90;45.20
60965;DHT22;46834;51.100;6.886;2023-02-13T13:07:16;15.80;45.10
60965;DHT22;46834;51.100;6.886;2023-02-13T13:10:18;15.80;45.10
60965;DHT22;46834;51.100;6.886;2023-02-13T13:18:58;15.80;44.40
60965;DHT22;46834;51.100;6.886;2023-02-13T13:26:52;15.70;44.40
60965;DHT22;46834;51.100;6.886;2023-02-13T13:29:34;15.60;44.60
60965;DHT22;46834;51.100;6.886;2023-02-13T13:32:08;15.70;44.20
60965;DHT22;46834;51.100;6.886;2023-02-13T13:34:40;15.60;44.60
60965;DHT22;46834;51.100;6.886;2023-02-13T13:37:18;15.60;44.70
60965;DHT22;46834;51.100;6.886;2023-02-13T13:43:04;15.60;43.80
60965;DHT22;46834;51.100;6.886;2023-02-13T13:48:54;15.70;44.60
60965;DHT22;46834;51.100;6.886;2023-02-13T13:51:34;15.70;43.90
60965;DHT22;46834;51.100;6.886;2023-02-13T13:59:17;15.70;43.40
60965;DHT22;46834;51.100;6.886;2023-02-13T14:05:18;15.70;43.30
60965;DHT22;46834;51.100;6.886;2023-02-13T14:07:58;15.70;43.30
60965;DHT22;46834;51.100;6.886;2023-02-13T14:31:26;15.70;43.50
60965;DHT22;46834;51.100;6.886;2023-02-13T14:33:58;15.80;43.00
60965;DHT22;46834;51.100;6.886;2023-02-13T14:36:30;15.80;43.30
60965;DHT22;46834;51.100;6.886;2023-02-13T14:39:05;15.80;43.20
60965;DHT22;46834;51.100;6.886;2023-02-13T14:41:55;15.80;43.20
60965;DHT22;46834;51.100;6.886;2023-02-13T14:44:49;15.80;43.40
60965;DHT22;46834;51.100;6.886;2023-02-13T14:50:06;15.80;43.30
60965;DHT22;46834;51.100;6.886;2023-02-13T14:52:42;15.80;43.20
60965;DHT22;46834;51.100;6.886;2023-02-13T14:57:50;15.80;43.00
60965;DHT22;46834;51.100;6.886;2023-02-13T15:00:30;15.80;42.40
60965;DHT22;46834;51.100;6.886;2023-02-13T15:03:23;15.80;42.40
60965;DHT22;46834;51.100;6.886;2023-02-13T15:05:58;15.80;42.30
60965;DHT22;46834;51.100;6.886;2023-02-13T15:08:35;15.80;42.70
60965;DHT22;46834;51.100;6.886;2023-02-13T15:11:06;15.80;42.50
60965;DHT22;46834;51.100;6.886;2023-02-13T15:13:52;15.80;42.60
60965;DHT22;46834;51.100;6.886;2023-02-13T15:16:18;15.80;42.60
60965;DHT22;46834;51.100;6.886;2023-02-13T15:18:47;15.70;42.30
60965;DHT22;46834;51.100;6.886;2023-02-13T15:21:19;15.80;42.10
60965;DHT22;46834;51.100;6.886;2023-02-13T15:23:50;15.80;42.20
60965;DHT22;46834;51.100;6.886;2023-02-13T15:26:22;15.80;42.30
60965;DHT22;46834;51.100;6.886;2023-02-13T15:29:02;15.80;42.00
60965;DHT22;46834;51.100;6.886;2023-02-13T15:31:31;15.70;41.60
60965;DHT22;46834;51.100;6.886;2023-02-13T15:33:58;15.70;42.00
60965;DHT22;46834;51.100;6.886;2023-02-13T15:36:26;15.70;42.00
60965;DHT22;46834;51.100;6.886;2023-02-13T15:39:03;15.70;42.00
60965;DHT22;46834;51.100;6.886;2023-02-13T15:41:35;15.60;41.90
60965;DHT22;46834;51.100;6.886;2023-02-13T15:44:03;15.60;41.80
60965;DHT22;46834;51.100;6.886;2023-02-13T15:46:31;15.60;41.80
60965;DHT22;46834;51.100;6.886;2023-02-13T15:49:04;15.60;41.70
60965;DHT22;46834;51.100;6.886;2023-02-13T15:51:32;15.60;41.60
60965;DHT22;46834;51.100;6.886;2023-02-13T15:54:04;15.50;41.60
60965;DHT22;46834;51.100;6.886;2023-02-13T15:56:32;15.60;41.60
60965;DHT22;46834;51.100;6.886;2023-02-13T15:59:00;15.50;41.60
60965;DHT22;46834;51.100;6.886;2023-02-13T16:01:27;15.40;41.30
60965;DHT22;46834;51.100;6.886;2023-02-13T16:04:07;15.50;41.40
60965;DHT22;46834;51.100;6.886;2023-02-13T16:06:35;15.40;40.80
60965;DHT22;46834;51.100;6.886;2023-02-13T16:09:01;15.40;41.30
60965;DHT22;46834;51.100;6.886;2023-02-13T16:11:36;15.40;41.30
60965;DHT22;46834;51.100;6.886;2023-02-13T16:14:20;15.30;40.70
60965;DHT22;46834;51.100;6.886;2023-02-13T16:16:55;15.30;41.20
60965;DHT22;46834;51.100;6.886;2023-02-13T16:22:03;15.20;40.90
60965;DHT22;46834;51.100;6.886;2023-02-13T16:24:52;15.20;40.80
60965;DHT22;46834;51.100;6.886;2023-02-13T16:27:27;15.10;40.90
60965;DHT22;46834;51.100;6.886;2023-02-13T16:30:03;15.10;40.60
60965;DHT22;46834;51.100;6.886;2023-02-13T16:32:34;15.00;40.70
60965;DHT22;46834;51.100;6.886;2023-02-13T16:35:25;14.90;40.60
60965;DHT22;46834;51.100;6.886;2023-02-13T16:37:59;14.90;40.30
60965;DHT22;46834;51.100;6.886;2023-02-13T16:48:41;14.60;40.50
60965;DHT22;46834;51.100;6.886;2023-02-13T16:51:08;14.50;40.50
60965;DHT22;46834;51.100;6.886;2023-02-13T16:53:35;14.40;40.50
60965;DHT22;46834;51.100;6.886;2023-02-13T16:56:05;14.30;40.40
60965;DHT22;46834;51.100;6.886;2023-02-13T16:58:32;14.30;40.40
60965;DHT22;46834;51.100;6.886;2023-02-13T17:00:58;14.20;40.50
60965;DHT22;46834;51.100;6.886;2023-02-13T17:03:26;14.10;40.40
60965;DHT22;46834;51.100;6.886;2023-02-13T17:05:52;14.00;40.40
60965;DHT22;46834;51.100;6.886;2023-02-13T17:08:20;13.90;40.40
60965;DHT22;46834;51.100;6.886;2023-02-13T17:11:02;13.90;40.40
60965;DHT22;46834;51.100;6.886;2023-02-13T17:13:29;13.80;40.00
60965;DHT22;46834;51.100;6.886;2023-02-13T17:15:55;13.80;40.50
60965;DHT22;46834;51.100;6.886;2023-02-13T17:18:22;13.70;40.50
60965;DHT22;46834;51.100;6.886;2023-02-13T17:20:48;13.60;40.40
60965;DHT22;46834;51.100;6.886;2023-02-13T17:23:16;13.60;40.50
60965;DHT22;46834;51.100;6.886;2023-02-13T17:25:45;13.50;40.40
60965;DHT22;46834;51.100;6.886;2023-02-13T17:30:41;13.40;40.50
60965;DHT22;46834;51.100;6.886;2023-02-13T17:33:16;13.30;40.50
60965;DHT22;46834;51.100;6.886;2023-02-13T17:35:45;13.20;40.40
60965;DHT22;46834;51.100;6.886;2023-02-13T17:38:11;13.20;40.60
60965;DHT22;46834;51.100;6.886;2023-02-13T17:40:37;13.10;40.50
60965;DHT22;46834;51.100;6.886;2023-02-13T17:43:05;13.10;41.20
60965;DHT22;46834;51.100;6.886;2023-02-13T17:45:32;13.00;40.70
60965;DHT22;46834;51.100;6.886;2023-02-13T17:47:59;12.90;40.50
60965;DHT22;46834;51.100;6.886;2023-02-13T17:50:26;12.90;40.60
60965;DHT22;46834;51.100;6.886;2023-02-13T17:52:54;12.80;40.60
60965;DHT22;46834;51.100;6.886;2023-02-13T17:55:23;12.80;40.60
60965;DHT22;46834;51.100;6.886;2023-02-13T17:57:51;12.80;40.70
60965;DHT22;46834;51.100;6.886;2023-02-13T18:00:19;12.70;40.70
60965;DHT22;46834;51.100;6.886;2023-02-13T18:02:46;12.70;40.60
60965;DHT22;46834;51.100;6.886;2023-02-13T18:05:14;12.60;40.60
60965;DHT22;46834;51.100;6.886;2023-02-13T18:07:41;12.60;40.60
60965;DHT22;46834;51.100;6.886;2023-02-13T18:10:19;12.60;40.70
60965;DHT22;46834;51.100;6.886;2023-02-13T18:12:50;12.60;40.50
60965;DHT22;46834;51.100;6.886;2023-02-13T18:15:17;12.50;40.60
60965;DHT22;46834;51.100;6.886;2023-02-13T18:17:44;12.40;40.60
60965;DHT22;46834;51.100;6.886;2023-02-13T18:20:17;12.40;40.60
60965;DHT22;46834;51.100;6.886;2023-02-13T18:22:46;12.40;40.60
60965;DHT22;46834;51.100;6.886;2023-02-13T18:25:15;12.40;40.70
60965;DHT22;46834;51.100;6.886;2023-02-13T18:27:41;12.40;40.70
60965;DHT22;46834;51.100;6.886;2023-02-13T18:30:09;12.30;40.80
60965;DHT22;46834;51.100;6.886;2023-02-13T18:32:37;12.30;40.70
60965;DHT22;46834;51.100;6.886;2023-02-13T18:35:02;12.30;40.80
60965;DHT22;46834;51.100;6.886;2023-02-13T18:37:28;12.20;40.70
60965;DHT22;46834;51.100;6.886;2023-02-13T18:39:55;12.10;40.60
60965;DHT22;46834;51.100;6.886;2023-02-13T18:42:21;12.10;40.70
60965;DHT22;46834;51.100;6.886;2023-02-13T18:44:47;12.00;40.70
60965;DHT22;46834;51.100;6.886;2023-02-13T18:47:12;12.00;40.70